Vero Beach Municipal Airport
KVRB : rendu visible

Aérodrome :











RETROUVEZ-NOUS SUR...

 
LOGIN :

S'inscrire | Disclaimer

   EN    FR    IT 

 









Légende :    VFR   VFR Marginal   IFR   IFR Intensif   IFR Très Intensif
Visi : 
Plafond : 
>= 8 km
>= 3000ft
5 à 8 km
1000 à 3000 ft
1500m à 5 km
500 à 1000 ft
800 à 1500m
200 à 500 ft
< 800m
< 200 ft
Symboles :   Orages  Brouillard  Fortes neiges  Fortes précipitations  Vent > 20 kt






- Altitude de l'aérodrome : 24 ft
- Code IATA : VRB


KVRB - Vero Beach Municipal

DERNIER METAR :
  • 270529Z AUTO 29009KT 10SM BKN018 OVC080 19/16 A2997 RMK AO2 T01890161

METARs EXPIRÉS :
  • 270453Z AUTO 25004KT 10SM OVC075 19/16 A2996 RMK AO2 SLP145 T01890161 402940178
  • 270353Z AUTO 29005KT 10SM OVC060 19/17 A2997 RMK AO2 SLP148 T01890167
  • 270253Z AUTO 29004KT 10SM BKN070 OVC090 19/17 A2997 RMK AO2 SLP148 60002 T01890167 51017

TAF KVRB
Valide du 27 à 06h jusqu'au 28 à 06h UTC


270527Z 2706/2806 27008KT P6SM VCSH BKN035 OVC080
FM270900 32009KT P6SM SCT030 OVC110
FM271400 32013G19KT P6SM SKC
FM280200 31004KT P6SM SKC



MET'MAP, la Météo Aéronautique d'un coup d'oeil ! - Copyright ORBIFLY Décembre 2007 - Disclaimer

ORBIFLY MET'MAP TEAM :

Programmation & Développement : Alexandra Zaïnal
Sur une idée originale de : Baudouin d'Aumeries
Assistance à la programmation : Marc-Olivier Méhu
Soutien technique & logistique : Manuel Goepfert

Contact : metmap@orbifly.com




SOURCES & CREDITS :

   NOAA       Earth
Advisory